Hlavní strana
METAR-TAF:

METAR-TAF

Letiště :

Sørkjosen, Norsko

zeměpisná šířka: 69-47N, zeměpisná délka: 020-58E, výška: 0 m

Aktuální stav počasí

Zpráva byla vytvořena před 5 hodinami a 8 minutami, v 07:50 UTC
Východojihovýchodní vítr 11 kt
Teplota 3°C
Vlhkost vzduchu 81%
Tlak 1001 hPa
Viditelnost 10 km a více
Skoro jasno ve výšce 2000 ft
Polojasno ve výšce 3000 ft
Oblačno až skoro zataženo ve výšce 4000 ft

METAR: ENSR 250750Z 14009KT 9999 FEW020 SCT030 BKN040 03/00 Q1001 WIND 1119FT 12011KT

Čas: 14:58 (12:58 UTC)


TAF: chybějící

Stav a předpovědi počasí z více než 4 000 letišť (zprávy METAR a TAF).

Červené a žluté tečky na mapě představují dostupné meteorologické stanice.

Když kurzor umístíte na tečku, zobrazí se název stanice.

Pak kliknutím zobrazíte stav a předpověď počasí.

Chcete-li změnit mapu, kliknutím na zelené tlačítko se znaménkem +mapu přiblížíte, kliknutím na zelené tlačítko se znaménkem – mapu oddálíte a kliknutím na zelené šipky přejdete na sousední mapy.


METAR-TAF: